Airfield :
LOGIN :

Register | Disclaimer

   EN    FR    IT 

 










Legend :    VFR   Marginal VFR   IFR   Intensive IFR   Very Intensive IFR
Visi :
Ceiling :
>= 8 km
>= 3000ft
5 to 8 km
1000 to 3000 ft
1500m to 5 km
500 to 1000 ft
800 to 1500m
200 to 500 ft
< 800m
< 200 ft
Symbols :   Thunderstorms  Fog  Heavy snow  Heavy precipitations  Wind > 20 kt
SIGMETs :     Misc.  Thunderstorms  Icing  Turbulence  Mountain Waves  Volcanic Ashes






- Airport Elevation : 400 ft
- IATA code : BNX


LQBK - Banja Luka

CURRENT METAR :
  • 112100Z 36002KT 9999 BKN027 02/01 Q1012 NOSIG

EXPIRED METARs :
  • 112030Z 31003KT 9999 BKN030 02/01 Q1013 NOSIG
  • 112000Z 33002KT 9999 BKN030 02/00 Q1013 NOSIG
  • 111930Z 33002KT 9999 BKN030 02/00 Q1013 NOSIG
  • 111900Z 33003KT 9999 BKN035 02/00 Q1013 NOSIG
  • 111830Z 33002KT 9999 BKN035 02/01 Q1014 NOSIG

TAF TAF LQBK
Valid from the 11 at 18:00 until the 12 at 18:00 UTC


111700Z 1118/1218 06005KT 9999 SCT040 TX02/1212Z TN00/1206Z
PROB30
TEMPO 1200/1208 3000 BR BKN007
PROB40
TEMPO 1215/1218 4000 -RA BR BKN013



MET'MAP, your aeronautical weather chart ! - Copyright ORBIFLY December 2007 - Disclaimer

ORBIFLY MET'MAP TEAM :

Programming & Development : Alexandra Zaïnal
Concept & original design : Baudouin d'Aumeries
Assistance for programming : Marc-Olivier Méhu
Technical & hardware support : Manuel Goepfert

Contact : metmap@orbifly.com




SOURCES & CREDITS :

   NOAA